createdAt,value
2023-03-20T00:03:48.196Z,26.00
2023-03-20T00:08:52.866Z,27.67
2023-03-20T00:13:54.177Z,25.40
2023-03-20T00:18:56.346Z,24.60
2023-03-20T00:23:58.649Z,30.55
2023-03-20T00:28:59.496Z,34.67
2023-03-20T00:34:02.218Z,30.70
2023-03-20T00:39:04.870Z,28.83
2023-03-20T00:44:22.422Z,31.70
2023-03-20T00:49:26.449Z,26.30
2023-03-20T00:54:29.155Z,28.05
2023-03-20T00:59:34.388Z,32.65
2023-03-20T01:04:37.603Z,27.33
2023-03-20T01:09:39.631Z,24.92
2023-03-20T01:14:40.343Z,25.48
2023-03-20T01:19:41.500Z,26.35
2023-03-20T01:24:43.475Z,23.27
2023-03-20T01:29:44.224Z,30.15
2023-03-20T01:34:45.122Z,28.75
2023-03-20T01:39:47.169Z,27.15
2023-03-20T01:44:48.706Z,29.30
2023-03-20T01:50:26.667Z,28.85
2023-03-20T01:55:35.535Z,31.85
2023-03-20T02:00:38.184Z,30.83
2023-03-20T02:05:41.609Z,34.20
2023-03-20T02:10:44.994Z,31.85
2023-03-20T02:16:00.607Z,33.47
2023-03-20T02:21:57.158Z,36.55
2023-03-20T02:27:10.210Z,32.80
2023-03-20T02:32:46.309Z,29.92
2023-03-20T02:38:01.295Z,35.38
2023-03-20T02:43:11.046Z,31.33
2023-03-20T02:48:23.051Z,32.10
2023-03-20T02:53:34.984Z,36.80
2023-03-20T02:58:42.725Z,35.38
2023-03-20T03:03:49.661Z,37.17
2023-03-20T03:08:57.553Z,35.03
2023-03-20T03:13:59.761Z,38.13
2023-03-20T03:19:08.541Z,32.30
2023-03-20T03:24:39.739Z,33.55
2023-03-20T03:29:42.356Z,33.60
2023-03-20T03:34:43.324Z,31.02
2023-03-20T03:39:53.353Z,33.45
2023-03-20T03:45:02.588Z,35.65
2023-03-20T03:50:11.317Z,34.75
2023-03-20T03:55:19.754Z,36.08
2023-03-20T04:00:42.403Z,33.60
2023-03-20T04:05:46.963Z,30.25
2023-03-20T04:10:48.984Z,30.85
2023-03-20T04:15:49.755Z,35.78
2023-03-20T04:20:51.970Z,36.97
2023-03-20T04:25:54.001Z,35.72
2023-03-20T04:30:57.563Z,39.53
2023-03-20T04:36:16.991Z,29.15
2023-03-20T04:41:21.097Z,30.20
2023-03-20T04:46:27.709Z,29.95
2023-03-20T04:51:28.810Z,35.28
2023-03-20T04:56:30.924Z,27.25
2023-03-20T05:01:45.016Z,33.15
2023-03-20T05:06:49.069Z,30.42
2023-03-20T05:11:53.335Z,29.90
2023-03-20T05:17:23.428Z,31.35
2023-03-20T05:22:42.475Z,28.90
2023-03-20T05:28:07.362Z,32.70
2023-03-20T05:33:22.939Z,18.80
2023-03-20T05:38:42.829Z,22.33
2023-03-20T05:44:10.677Z,19.35
2023-03-20T05:49:20.082Z,23.10
2023-03-20T05:54:39.084Z,19.42
2023-03-20T05:59:53.533Z,8.77
2023-03-20T06:05:19.064Z,19.67
2023-03-20T06:10:24.750Z,13.52
2023-03-20T06:15:28.242Z,14.05
2023-03-20T06:20:36.944Z,11.55
2023-03-20T06:25:39.466Z,5.70
2023-03-20T06:30:43.482Z,4.20
2023-03-20T06:35:50.262Z,8.32
2023-03-20T06:40:51.293Z,5.60
2023-03-20T06:45:54.043Z,6.25
2023-03-20T06:50:56.953Z,3.83
2023-03-20T06:56:03.101Z,6.60
2023-03-20T07:01:10.197Z,7.05
2023-03-20T07:06:13.798Z,5.53
2023-03-20T07:11:14.549Z,5.97
2023-03-20T07:16:17.279Z,7.68
2023-03-20T07:21:21.302Z,4.55
2023-03-20T07:26:22.177Z,8.63
2023-03-20T07:31:26.810Z,6.30
2023-03-20T07:36:36.780Z,4.40
2023-03-20T07:41:37.866Z,5.95
2023-03-20T07:46:44.540Z,5.75
2023-03-20T07:51:45.714Z,6.38
2023-03-20T07:56:46.541Z,6.03
2023-03-20T08:01:49.206Z,12.68
2023-03-20T08:06:51.960Z,7.78
2023-03-20T08:11:52.855Z,7.22
2023-03-20T08:17:12.352Z,8.30
2023-03-20T08:22:14.773Z,9.48
2023-03-20T08:27:15.442Z,6.80
2023-03-20T08:32:18.051Z,10.10
2023-03-20T08:37:21.484Z,8.05
2023-03-20T08:42:22.131Z,11.05
2023-03-20T08:47:27.565Z,9.15
2023-03-20T08:52:28.431Z,10.07
2023-03-20T08:57:29.311Z,11.90
2023-03-20T09:02:31.432Z,16.23
2023-03-20T09:07:32.190Z,17.42
2023-03-20T09:12:33.486Z,17.08
2023-03-20T09:17:35.642Z,18.50
2023-03-20T09:22:36.372Z,15.90
2023-03-20T09:27:37.172Z,20.75
2023-03-20T09:32:39.606Z,19.52
2023-03-20T09:37:40.380Z,26.05
2023-03-20T09:42:48.883Z,26.30
2023-03-20T09:47:59.419Z,21.35
2023-03-20T09:53:07.267Z,26.38
2023-03-20T09:58:14.870Z,26.75
2023-03-20T10:03:23.391Z,28.30
2023-03-20T10:08:29.215Z,32.08
2023-03-20T10:13:41.217Z,30.88
2023-03-20T10:18:50.299Z,39.72
2023-03-20T10:24:00.271Z,33.92
2023-03-20T10:29:03.614Z,32.95
2023-03-20T10:34:21.670Z,41.22
2023-03-20T10:39:43.073Z,32.72
2023-03-20T10:44:50.186Z,34.85
2023-03-20T10:49:57.104Z,30.55
2023-03-20T10:55:01.443Z,34.88
2023-03-20T11:00:02.147Z,31.38
2023-03-20T11:05:21.272Z,35.58
2023-03-20T11:10:27.044Z,33.97
2023-03-20T11:15:32.112Z,30.25
2023-03-20T11:20:38.317Z,28.85
2023-03-20T11:25:47.038Z,26.02
2023-03-20T11:31:03.649Z,23.63
2023-03-20T11:36:14.825Z,28.52
2023-03-20T11:41:20.631Z,22.50
2023-03-20T11:46:23.964Z,24.55
2023-03-20T11:51:27.031Z,20.48
2023-03-20T11:56:29.750Z,30.05
2023-03-20T12:01:40.582Z,38.50
2023-03-20T12:06:47.955Z,25.95
2023-03-20T12:11:53.440Z,27.35
2023-03-20T12:17:02.453Z,27.50
2023-03-20T12:22:13.079Z,26.73
2023-03-20T12:27:22.496Z,29.45
2023-03-20T12:32:27.824Z,25.48
2023-03-20T12:37:29.833Z,32.42
2023-03-20T12:42:45.864Z,32.63
2023-03-20T12:47:59.561Z,31.55
2023-03-20T12:53:20.397Z,29.45
2023-03-20T12:58:30.206Z,31.85
2023-03-20T13:03:53.655Z,34.90
2023-03-20T13:09:33.753Z,26.92
2023-03-20T13:14:44.280Z,36.47
2023-03-20T13:19:54.100Z,35.03
2023-03-20T13:25:04.120Z,33.60
2023-03-20T13:30:12.494Z,29.33
2023-03-20T13:35:28.412Z,35.70
2023-03-20T13:40:33.519Z,38.58
2023-03-20T13:45:37.895Z,37.05
2023-03-20T13:50:45.861Z,47.22
2023-03-20T13:55:53.504Z,38.28
2023-03-20T14:01:00.982Z,36.83
2023-03-20T14:06:53.332Z,32.55
2023-03-20T14:11:57.825Z,41.10
2023-03-20T14:17:03.572Z,43.92
2023-03-20T14:22:04.996Z,38.45
2023-03-20T14:27:07.957Z,38.65
2023-03-20T14:32:34.041Z,39.90
2023-03-20T14:37:46.912Z,43.97
2023-03-20T14:42:56.751Z,40.33
2023-03-20T14:48:05.282Z,43.05
2023-03-20T14:53:16.197Z,42.58
2023-03-20T14:58:50.773Z,46.25
2023-03-20T15:03:54.764Z,45.33
2023-03-20T15:08:59.053Z,45.80
2023-03-20T15:14:02.958Z,49.67
2023-03-20T15:19:10.092Z,53.65
2023-03-20T15:24:20.740Z,58.55
2023-03-20T15:29:23.465Z,69.28
2023-03-20T15:34:27.783Z,64.35
2023-03-20T15:39:30.086Z,70.80
2023-03-20T15:44:37.984Z,76.75
2023-03-20T15:49:41.110Z,75.85
2023-03-20T15:54:43.484Z,80.10
2023-03-20T15:59:45.726Z,65.18
2023-03-20T16:04:49.432Z,68.68
2023-03-20T16:09:51.473Z,68.05
2023-03-20T16:14:54.867Z,61.40
2023-03-20T16:19:56.229Z,61.85
2023-03-20T16:25:01.065Z,52.53
2023-03-20T16:30:06.620Z,52.65
2023-03-20T16:35:16.740Z,51.25
2023-03-20T16:40:22.308Z,52.25
2023-03-20T16:45:29.898Z,57.55
2023-03-20T16:50:36.571Z,61.97
2023-03-20T16:55:43.263Z,53.70
2023-03-20T17:00:50.884Z,60.38
2023-03-20T17:05:56.309Z,44.03
2023-03-20T17:11:00.483Z,43.63
2023-03-20T17:16:02.782Z,42.03
2023-03-20T17:21:03.580Z,41.95
2023-03-20T17:26:04.544Z,31.30
2023-03-20T17:31:07.145Z,34.80
2023-03-20T17:36:16.069Z,31.15
2023-03-20T17:41:18.041Z,34.85
2023-03-20T17:46:21.553Z,37.15
2023-03-20T17:51:22.275Z,36.60
2023-03-20T17:56:23.925Z,36.17
2023-03-20T18:01:26.481Z,31.52
2023-03-20T18:06:29.326Z,29.92
2023-03-20T18:11:30.973Z,33.72
2023-03-20T18:16:33.369Z,23.63
2023-03-20T18:21:34.034Z,27.65
2023-03-20T18:26:34.727Z,19.80
2023-03-20T18:31:37.190Z,19.85
2023-03-20T18:36:38.634Z,19.70
2023-03-20T18:41:39.350Z,14.18
2023-03-20T18:46:41.943Z,14.15
2023-03-20T18:51:42.764Z,16.27
2023-03-20T18:56:43.667Z,13.85
2023-03-20T19:01:47.073Z,17.10
2023-03-20T19:06:48.652Z,16.88
2023-03-20T19:11:49.409Z,19.25
2023-03-20T19:16:52.010Z,17.70
2023-03-20T19:21:52.721Z,17.23
2023-03-20T19:26:57.060Z,15.55
2023-03-20T19:31:59.840Z,13.88
2023-03-20T19:37:00.615Z,14.27
2023-03-20T19:42:15.272Z,13.95
2023-03-20T19:47:23.440Z,16.23
2023-03-20T19:52:32.884Z,16.48
2023-03-20T19:57:33.603Z,14.30
2023-03-20T20:02:35.773Z,16.80
2023-03-20T20:08:09.208Z,17.13
2023-03-20T20:12:57.452Z,18.25
2023-03-20T20:17:59.681Z,16.15
2023-03-20T20:23:00.478Z,15.32
2023-03-20T20:28:01.200Z,20.45
2023-03-20T20:33:05.267Z,18.05
2023-03-20T20:43:59.552Z,28.25
2023-03-20T20:48:49.129Z,26.40
2023-03-20T20:53:49.806Z,18.70
2023-03-20T20:58:50.535Z,21.75
2023-03-20T21:03:52.608Z,21.08
2023-03-20T21:08:53.310Z,24.50
2023-03-20T21:13:54.544Z,24.08
2023-03-20T21:18:56.629Z,27.00
2023-03-20T21:23:57.397Z,24.52
2023-03-20T21:28:58.499Z,26.42
2023-03-20T21:34:00.664Z,26.00
2023-03-20T21:39:08.290Z,27.65
2023-03-20T21:44:16.602Z,28.38
2023-03-20T22:05:59.211Z,23.65
2023-03-20T22:17:08.595Z,26.85
2023-03-20T22:43:44.652Z,23.65
2023-03-20T22:48:18.318Z,26.95
2023-03-20T22:53:20.645Z,31.15
2023-03-20T22:58:21.344Z,27.00
2023-03-20T23:03:39.950Z,24.48
2023-03-20T23:08:50.749Z,27.23
2023-03-20T23:13:56.391Z,26.73
2023-03-20T23:18:57.734Z,26.38
2023-03-20T23:23:59.817Z,25.88
2023-03-20T23:29:01.672Z,25.10
2023-03-20T23:34:02.420Z,28.50
2023-03-20T23:39:04.841Z,23.77
2023-03-20T23:44:06.063Z,25.42
2023-03-20T23:49:06.749Z,28.17
2023-03-20T23:54:09.145Z,25.15
2023-03-20T23:59:20.543Z,25.92
